createdAt,value
2022-11-07T00:00:35.746Z,66.95
2022-11-07T00:03:02.612Z,66.86
2022-11-07T00:05:29.462Z,67.47
2022-11-07T00:07:56.053Z,67.57
2022-11-07T00:10:22.709Z,67.34
2022-11-07T00:12:49.308Z,67.48
2022-11-07T00:15:21.295Z,67.59
2022-11-07T00:17:47.919Z,67.25
2022-11-07T00:20:14.593Z,66.68
2022-11-07T00:22:41.191Z,66.79
2022-11-07T00:25:08.242Z,67.66
2022-11-07T00:27:34.887Z,67.14
2022-11-07T00:30:01.696Z,66.86
2022-11-07T00:32:28.325Z,66.44
2022-11-07T00:34:54.890Z,65.30
2022-11-07T00:37:21.484Z,66.46
2022-11-07T00:39:48.293Z,66.69
2022-11-07T00:42:14.874Z,67.13
2022-11-07T00:44:41.610Z,68.18
2022-11-07T00:47:08.221Z,67.65
2022-11-07T00:49:34.848Z,67.75
2022-11-07T00:52:03.807Z,68.09
2022-11-07T00:54:30.419Z,67.88
2022-11-07T00:56:57.044Z,67.77
2022-11-07T00:59:23.617Z,67.63
2022-11-07T01:01:50.387Z,67.91
2022-11-07T01:04:55.372Z,67.81
2022-11-07T01:07:22.092Z,67.81
2022-11-07T01:09:48.714Z,67.89
2022-11-07T01:12:16.305Z,67.37
2022-11-07T01:14:42.931Z,67.61
2022-11-07T01:17:10.179Z,67.77
2022-11-07T01:19:36.757Z,67.30
2022-11-07T01:22:03.427Z,67.69
2022-11-07T01:24:30.033Z,67.22
2022-11-07T01:26:56.641Z,67.73
2022-11-07T01:29:23.317Z,67.83
2022-11-07T01:31:49.941Z,67.22
2022-11-07T01:34:17.780Z,67.31
2022-11-07T01:36:46.908Z,66.83
2022-11-07T01:39:14.041Z,66.93
2022-11-07T01:41:40.705Z,67.17
2022-11-07T01:44:07.230Z,67.47
2022-11-07T01:46:37.794Z,66.99
2022-11-07T01:49:25.971Z,66.02
2022-11-07T01:52:00.515Z,65.82
2022-11-07T01:54:34.571Z,65.15
2022-11-07T01:57:06.975Z,65.21
2022-11-07T01:59:36.314Z,64.83
2022-11-07T02:02:04.157Z,65.40
2022-11-07T02:04:31.120Z,65.20
2022-11-07T02:07:20.102Z,65.88
2022-11-07T02:09:47.130Z,65.90
2022-11-07T02:12:15.123Z,65.65
2022-11-07T02:14:42.866Z,65.55
2022-11-07T02:17:11.107Z,66.02
2022-11-07T02:19:43.556Z,66.15
2022-11-07T02:22:25.437Z,66.07
2022-11-07T02:24:56.131Z,66.33
2022-11-07T02:27:27.426Z,66.54
2022-11-07T02:29:59.798Z,67.14
2022-11-07T02:32:26.396Z,67.38
2022-11-07T02:35:05.128Z,66.89
2022-11-07T02:37:38.597Z,66.95
2022-11-07T02:40:09.366Z,67.26
2022-11-07T02:42:44.734Z,67.89
2022-11-07T02:45:17.442Z,67.83
2022-11-07T02:47:44.502Z,67.51
2022-11-07T02:50:14.126Z,68.35
2022-11-07T02:52:41.361Z,67.92
2022-11-07T02:55:08.537Z,68.89
2022-11-07T02:57:35.181Z,68.52
2022-11-07T03:00:01.905Z,68.99
2022-11-07T03:02:28.938Z,68.69
2022-11-07T03:04:55.757Z,68.57
2022-11-07T03:07:22.411Z,68.84
2022-11-07T03:09:49.004Z,68.67
2022-11-07T03:12:15.632Z,68.74
2022-11-07T03:14:42.385Z,67.78
2022-11-07T03:17:09.154Z,68.03
2022-11-07T03:19:35.802Z,67.66
2022-11-07T03:22:02.403Z,67.91
2022-11-07T03:24:29.232Z,68.00
2022-11-07T03:26:55.866Z,68.75
2022-11-07T03:29:22.444Z,68.42
2022-11-07T03:31:49.088Z,68.94
2022-11-07T03:34:15.780Z,69.29
2022-11-07T03:36:42.345Z,69.00
2022-11-07T03:39:09.291Z,68.88
2022-11-07T03:41:36.033Z,69.80
2022-11-07T03:44:02.715Z,68.94
2022-11-07T03:46:29.333Z,69.13
2022-11-07T03:48:56.180Z,69.13
2022-11-07T03:51:22.802Z,68.71
2022-11-07T03:53:49.411Z,68.29
2022-11-07T03:56:15.986Z,67.92
2022-11-07T03:58:42.588Z,67.82
2022-11-07T04:01:11.280Z,67.54
2022-11-07T04:03:37.897Z,67.49
2022-11-07T04:06:04.706Z,68.22
2022-11-07T04:08:31.441Z,68.37
2022-11-07T04:10:58.060Z,68.04
2022-11-07T04:13:43.269Z,68.51
2022-11-07T04:16:32.295Z,68.14
2022-11-07T04:19:01.534Z,67.65
2022-11-07T04:21:28.219Z,68.22
2022-11-07T04:23:54.949Z,68.07
2022-11-07T04:26:40.312Z,68.74
2022-11-07T04:29:06.898Z,69.12
2022-11-07T04:31:33.510Z,68.78
2022-11-07T04:34:00.097Z,69.04
2022-11-07T04:36:26.702Z,68.68
2022-11-07T04:38:53.330Z,69.24
2022-11-07T04:41:23.067Z,69.36
2022-11-07T04:43:50.333Z,69.15
2022-11-07T04:46:17.289Z,68.73
2022-11-07T04:48:44.791Z,68.80
2022-11-07T04:51:21.755Z,68.75
2022-11-07T04:53:48.421Z,68.50
2022-11-07T04:56:15.089Z,68.92
2022-11-07T04:58:41.800Z,68.89
2022-11-07T05:01:08.404Z,68.43
2022-11-07T05:03:40.342Z,68.95
2022-11-07T05:06:12.372Z,68.39
2022-11-07T05:08:38.962Z,68.66
2022-11-07T05:11:06.111Z,69.58
2022-11-07T05:13:32.748Z,68.98
2022-11-07T05:15:59.349Z,68.98
2022-11-07T05:18:25.944Z,68.86
2022-11-07T05:20:52.642Z,68.76
2022-11-07T05:23:20.118Z,69.14
2022-11-07T05:25:52.152Z,68.94
2022-11-07T05:28:35.316Z,68.77
2022-11-07T05:31:05.319Z,69.21
2022-11-07T05:33:31.997Z,68.79
2022-11-07T05:36:11.665Z,68.86
2022-11-07T05:38:41.026Z,69.40
2022-11-07T05:41:07.628Z,69.08
2022-11-07T05:43:34.358Z,69.41
2022-11-07T05:46:01.418Z,68.21
2022-11-07T05:48:28.191Z,68.83
2022-11-07T05:50:54.797Z,68.51
2022-11-07T05:53:21.620Z,68.38
2022-11-07T05:55:48.728Z,68.61
2022-11-07T05:58:15.366Z,68.82
2022-11-07T06:00:42.046Z,68.46
2022-11-07T06:03:09.262Z,68.38
2022-11-07T06:05:39.011Z,68.44
2022-11-07T06:08:06.925Z,67.92
2022-11-07T06:10:33.869Z,67.58
2022-11-07T06:13:02.057Z,67.57
2022-11-07T06:15:30.360Z,68.36
2022-11-07T06:18:00.318Z,68.46
2022-11-07T06:20:27.438Z,67.57
2022-11-07T06:22:58.389Z,67.50
2022-11-07T06:25:26.021Z,67.50
2022-11-07T06:27:52.661Z,67.12
2022-11-07T06:30:19.324Z,67.76
2022-11-07T06:32:46.119Z,67.10
2022-11-07T06:35:12.944Z,66.57
2022-11-07T06:37:39.554Z,67.07
2022-11-07T06:40:06.854Z,67.29
2022-11-07T06:42:33.497Z,66.45
2022-11-07T06:45:00.124Z,65.80
2022-11-07T06:47:26.689Z,65.43
2022-11-07T06:49:53.277Z,65.47
2022-11-07T06:52:19.874Z,64.76
2022-11-07T06:54:46.445Z,65.26
2022-11-07T06:57:13.043Z,65.20
2022-11-07T06:59:39.706Z,64.86
2022-11-07T07:02:06.690Z,65.18
2022-11-07T07:04:33.408Z,65.90
2022-11-07T07:06:59.982Z,66.37
2022-11-07T07:09:26.594Z,66.15
2022-11-07T07:11:53.187Z,66.62
2022-11-07T07:14:19.766Z,66.20
2022-11-07T07:16:46.370Z,66.36
2022-11-07T07:19:13.040Z,66.24
2022-11-07T07:21:39.688Z,66.22
2022-11-07T07:24:06.719Z,66.56
2022-11-07T07:26:33.368Z,66.14
2022-11-07T07:28:59.937Z,66.52
2022-11-07T07:31:31.448Z,66.71
2022-11-07T07:33:58.440Z,66.57
2022-11-07T07:36:25.640Z,66.91
2022-11-07T07:38:52.538Z,66.53
2022-11-07T07:41:19.687Z,67.07
2022-11-07T07:43:46.512Z,66.93
2022-11-07T07:46:16.302Z,66.84
2022-11-07T07:48:42.923Z,67.10
2022-11-07T07:51:09.503Z,66.95
2022-11-07T07:53:36.099Z,67.29
2022-11-07T07:56:07.290Z,66.91
2022-11-07T07:58:34.194Z,66.95
2022-11-07T08:01:00.839Z,67.45
2022-11-07T08:03:32.005Z,67.47
2022-11-07T08:06:01.945Z,67.08
2022-11-07T08:08:31.410Z,67.40
2022-11-07T08:11:06.264Z,67.01
2022-11-07T08:13:33.053Z,66.96
2022-11-07T08:16:03.158Z,67.37
2022-11-07T08:18:29.868Z,66.94
2022-11-07T08:20:56.956Z,66.89
2022-11-07T08:23:24.492Z,67.14
2022-11-07T08:25:56.221Z,67.11
2022-11-07T08:28:25.361Z,67.14
2022-11-07T08:31:10.067Z,66.85
2022-11-07T08:33:36.762Z,66.58
2022-11-07T08:36:05.207Z,66.52
2022-11-07T08:38:33.977Z,65.71
2022-11-07T08:41:00.654Z,66.13
2022-11-07T08:43:27.581Z,65.76
2022-11-07T08:45:55.016Z,65.69
2022-11-07T08:48:22.557Z,65.65
2022-11-07T08:50:56.423Z,66.10
2022-11-07T08:53:24.284Z,65.58
2022-11-07T08:55:51.168Z,65.63
2022-11-07T08:58:19.233Z,65.51
2022-11-07T09:00:45.953Z,65.85
2022-11-07T09:06:00.698Z,64.86
2022-11-07T09:08:27.390Z,65.29
2022-11-07T09:10:54.252Z,65.09
2022-11-07T09:13:21.142Z,65.22
2022-11-07T09:15:51.474Z,64.99
2022-11-07T09:18:19.600Z,65.43
2022-11-07T09:20:46.372Z,64.52
2022-11-07T09:23:13.080Z,65.65
2022-11-07T09:25:39.952Z,64.42
2022-11-07T09:28:06.680Z,65.41
2022-11-07T09:30:33.368Z,65.47
2022-11-07T09:32:59.981Z,65.74
2022-11-07T09:35:27.203Z,64.85
2022-11-07T09:37:53.805Z,65.38
2022-11-07T09:40:56.371Z,65.51
2022-11-07T09:43:46.374Z,65.59
2022-11-07T09:46:40.071Z,65.03
2022-11-07T09:49:25.711Z,65.60
2022-11-07T09:52:19.340Z,65.19
2022-11-07T09:54:54.781Z,64.98
2022-11-07T09:57:22.268Z,65.49
2022-11-07T10:00:00.493Z,64.88
2022-11-07T10:02:40.536Z,65.18
2022-11-07T10:05:14.336Z,64.73
2022-11-07T10:07:46.924Z,65.81
2022-11-07T10:10:35.960Z,64.49
2022-11-07T10:13:35.737Z,65.45
2022-11-07T10:16:28.291Z,65.02
2022-11-07T10:19:23.732Z,65.21
2022-11-07T10:22:01.764Z,64.57
2022-11-07T10:24:43.523Z,64.68
2022-11-07T10:27:11.382Z,63.67
2022-11-07T10:29:46.986Z,64.25
2022-11-07T10:32:22.998Z,65.28
2022-11-07T10:35:04.458Z,65.02
2022-11-07T10:37:31.058Z,64.26
2022-11-07T10:39:57.628Z,64.34
2022-11-07T10:42:30.411Z,62.23
2022-11-07T10:44:59.373Z,62.58
2022-11-07T10:47:27.960Z,63.46
2022-11-07T10:50:01.772Z,63.67
2022-11-07T10:52:29.349Z,62.41
2022-11-07T10:55:14.469Z,62.53
2022-11-07T10:57:41.142Z,62.99
2022-11-07T11:00:25.752Z,62.56
2022-11-07T11:02:54.459Z,61.71
2022-11-07T11:05:42.130Z,61.82
2022-11-07T11:08:18.622Z,62.21
2022-11-07T11:10:46.273Z,62.58
2022-11-07T11:13:34.144Z,61.60
2022-11-07T11:16:21.335Z,61.26
2022-11-07T11:18:57.170Z,61.70
2022-11-07T11:21:24.899Z,61.92
2022-11-07T11:23:53.214Z,61.75
2022-11-07T11:26:33.400Z,61.32
2022-11-07T11:29:05.703Z,60.70
2022-11-07T11:31:46.443Z,60.59
2022-11-07T11:34:32.316Z,61.12
2022-11-07T11:37:05.241Z,60.65
2022-11-07T11:39:44.072Z,61.19
2022-11-07T11:42:33.469Z,60.97
2022-11-07T11:45:09.186Z,60.51
2022-11-07T11:47:42.904Z,60.56
2022-11-07T11:50:16.760Z,60.79
2022-11-07T11:52:44.462Z,59.87
2022-11-07T11:55:16.205Z,60.10
2022-11-07T11:57:48.703Z,60.75
2022-11-07T12:00:20.594Z,59.92
2022-11-07T12:03:00.522Z,59.92
2022-11-07T12:06:14.226Z,59.96
2022-11-07T12:09:17.288Z,59.70
2022-11-07T12:12:35.753Z,59.82
2022-11-07T12:15:24.725Z,59.30
2022-11-07T12:18:08.406Z,59.01
2022-11-07T12:20:56.589Z,59.21
2022-11-07T12:23:34.786Z,58.93
2022-11-07T12:26:13.750Z,58.85
2022-11-07T12:28:52.389Z,58.60
2022-11-07T12:31:37.860Z,58.47
2022-11-07T12:34:34.941Z,58.32
2022-11-07T12:37:04.350Z,58.48
2022-11-07T12:39:42.901Z,58.77
2022-11-07T12:42:40.827Z,59.06
2022-11-07T12:45:28.111Z,58.53
2022-11-07T12:48:15.248Z,58.34
2022-11-07T12:50:54.466Z,57.45
2022-11-07T12:53:24.124Z,58.31
2022-11-07T12:56:13.828Z,57.60
2022-11-07T12:58:43.038Z,57.70
2022-11-07T13:01:13.566Z,57.60
2022-11-07T13:03:55.385Z,58.11
2022-11-07T13:06:36.100Z,57.92
2022-11-07T13:09:21.377Z,56.72
2022-11-07T13:12:16.530Z,57.71
2022-11-07T13:14:44.208Z,57.19
2022-11-07T13:17:13.809Z,57.47
2022-11-07T13:19:43.302Z,57.65
2022-11-07T13:22:15.958Z,55.96
2022-11-07T13:25:17.281Z,55.42
2022-11-07T13:27:45.695Z,55.92
2022-11-07T13:30:12.200Z,55.26
2022-11-07T13:32:40.695Z,55.27
2022-11-07T13:35:10.349Z,55.46
2022-11-07T13:37:41.071Z,56.29
2022-11-07T13:40:13.900Z,55.95
2022-11-07T13:42:43.716Z,56.35
2022-11-07T13:45:38.023Z,56.68
2022-11-07T13:48:15.366Z,56.96
2022-11-07T13:50:48.266Z,57.38
2022-11-07T13:53:31.500Z,57.73
2022-11-07T13:56:07.924Z,56.92
2022-11-07T13:58:37.253Z,56.83
2022-11-07T14:01:15.381Z,56.47
2022-11-07T14:03:42.394Z,56.89
2022-11-07T14:06:13.933Z,56.46
2022-11-07T14:08:44.813Z,55.57
2022-11-07T14:11:20.937Z,56.55
2022-11-07T14:13:51.177Z,56.86
2022-11-07T14:16:24.504Z,56.99
2022-11-07T14:19:13.135Z,56.69
2022-11-07T14:21:39.706Z,56.80
2022-11-07T14:24:27.462Z,56.85
2022-11-07T14:27:05.102Z,56.52
2022-11-07T14:29:32.467Z,56.39
2022-11-07T14:32:05.134Z,55.95
2022-11-07T14:34:35.135Z,56.45
2022-11-07T14:37:06.268Z,56.12
2022-11-07T14:39:33.487Z,56.10
2022-11-07T14:42:02.966Z,56.10
2022-11-07T14:44:55.131Z,56.84
2022-11-07T14:47:26.845Z,56.75
2022-11-07T14:49:54.499Z,57.02
2022-11-07T14:52:21.068Z,56.24
2022-11-07T14:54:50.867Z,56.57
2022-11-07T14:57:18.136Z,56.43
2022-11-07T14:59:45.048Z,55.94
2022-11-07T15:02:27.056Z,56.13
2022-11-07T15:04:58.897Z,55.85
2022-11-07T15:07:34.172Z,55.86
2022-11-07T15:10:34.334Z,56.43
2022-11-07T15:13:04.551Z,55.89
2022-11-07T15:15:33.566Z,55.91
2022-11-07T15:18:03.994Z,56.15
2022-11-07T15:20:30.715Z,56.92
2022-11-07T15:22:59.071Z,56.79
2022-11-07T15:25:51.690Z,56.50
2022-11-07T15:28:24.754Z,56.61
2022-11-07T15:30:55.979Z,57.37
2022-11-07T15:33:23.358Z,57.29
2022-11-07T15:35:55.701Z,56.42
2022-11-07T15:38:25.394Z,56.94
2022-11-07T15:40:52.687Z,56.67
2022-11-07T15:43:19.672Z,56.75
2022-11-07T15:45:48.966Z,56.75
2022-11-07T15:48:19.710Z,58.25
2022-11-07T15:50:48.754Z,58.53
2022-11-07T15:53:22.673Z,59.35
2022-11-07T15:55:53.012Z,59.16
2022-11-07T15:58:22.929Z,59.48
2022-11-07T16:00:50.031Z,59.79
2022-11-07T16:03:18.442Z,58.97
2022-11-07T16:05:46.792Z,59.00
2022-11-07T16:08:16.290Z,58.77
2022-11-07T16:10:46.449Z,58.66
2022-11-07T16:13:13.745Z,58.63
2022-11-07T16:15:44.147Z,58.62
2022-11-07T16:18:37.208Z,58.57
2022-11-07T16:21:05.874Z,59.84
2022-11-07T16:23:35.194Z,59.65
2022-11-07T16:26:01.806Z,60.01
2022-11-07T16:28:34.943Z,58.66
2022-11-07T16:31:02.282Z,58.12
2022-11-07T16:33:29.373Z,57.88
2022-11-07T16:36:00.634Z,58.70
2022-11-07T16:38:34.079Z,58.00
2022-11-07T16:41:01.913Z,57.43
2022-11-07T16:43:28.531Z,57.64
2022-11-07T16:45:56.572Z,57.28
2022-11-07T16:48:28.632Z,57.79
2022-11-07T16:50:56.784Z,57.78
2022-11-07T16:53:24.913Z,58.03
2022-11-07T16:55:54.809Z,57.67
2022-11-07T16:58:31.705Z,57.55
2022-11-07T17:01:00.926Z,58.40
2022-11-07T17:03:27.598Z,58.66
2022-11-07T17:05:56.035Z,58.34
2022-11-07T17:08:32.744Z,58.50
2022-11-07T17:10:59.356Z,58.35
2022-11-07T17:13:25.946Z,57.98
2022-11-07T17:15:52.725Z,58.18
2022-11-07T17:18:22.284Z,58.34
2022-11-07T17:20:51.576Z,58.35
2022-11-07T17:23:19.149Z,58.60
2022-11-07T17:25:52.502Z,58.40
2022-11-07T17:28:19.514Z,58.45
2022-11-07T17:30:46.469Z,58.26
2022-11-07T17:33:13.768Z,58.15
2022-11-07T17:35:40.423Z,58.19
2022-11-07T17:38:09.946Z,58.24
2022-11-07T17:40:36.729Z,58.46
2022-11-07T17:43:03.493Z,59.22
2022-11-07T17:45:30.113Z,59.26
2022-11-07T17:47:56.761Z,59.42
2022-11-07T17:50:23.777Z,58.39
2022-11-07T17:52:52.240Z,59.32
2022-11-07T17:55:20.185Z,58.11
2022-11-07T17:57:47.136Z,57.94
2022-11-07T18:00:17.837Z,58.18
2022-11-07T18:02:45.402Z,58.04
2022-11-07T18:05:17.419Z,58.35
2022-11-07T18:07:44.904Z,58.35
2022-11-07T18:10:13.384Z,58.34
2022-11-07T18:12:40.017Z,58.75
2022-11-07T18:15:07.378Z,58.95
2022-11-07T18:17:35.583Z,59.09
2022-11-07T18:20:04.147Z,58.86
2022-11-07T18:22:30.867Z,59.77
2022-11-07T18:24:57.470Z,59.75
2022-11-07T18:27:24.140Z,60.26
2022-11-07T18:29:50.782Z,60.25
2022-11-07T18:32:17.490Z,60.14
2022-11-07T18:34:44.146Z,59.98
2022-11-07T18:37:10.716Z,59.71
2022-11-07T18:39:37.352Z,59.58
2022-11-07T18:42:04.045Z,59.15
2022-11-07T18:44:30.649Z,59.56
2022-11-07T18:46:57.351Z,59.75
2022-11-07T18:49:24.474Z,59.35
2022-11-07T18:51:51.079Z,59.36
2022-11-07T18:54:17.726Z,59.19
2022-11-07T18:56:44.309Z,59.16
2022-11-07T18:59:11.413Z,59.53
2022-11-07T19:01:38.193Z,59.89
2022-11-07T19:04:05.945Z,59.64
2022-11-07T19:06:33.700Z,59.58
2022-11-07T19:09:00.559Z,58.79
2022-11-07T19:11:29.812Z,59.04
2022-11-07T19:14:01.152Z,59.31
2022-11-07T19:16:28.150Z,59.38
2022-11-07T19:18:54.747Z,58.94
2022-11-07T19:21:21.791Z,59.29
2022-11-07T19:23:49.928Z,59.29
2022-11-07T19:26:19.033Z,59.67
2022-11-07T19:28:46.467Z,59.66
2022-11-07T19:31:13.359Z,59.22
2022-11-07T19:33:40.797Z,59.44
2022-11-07T19:36:12.380Z,59.62
2022-11-07T19:38:39.006Z,59.54
2022-11-07T19:41:07.129Z,59.39
2022-11-07T19:43:34.676Z,59.06
2022-11-07T19:46:07.288Z,59.06
2022-11-07T19:48:33.941Z,59.19
2022-11-07T19:51:05.330Z,58.42
2022-11-07T19:53:31.897Z,59.44
2022-11-07T19:55:58.514Z,59.23
2022-11-07T19:58:25.206Z,59.12
2022-11-07T20:00:51.870Z,59.15
2022-11-07T20:03:18.976Z,59.44
2022-11-07T20:05:47.749Z,59.64
2022-11-07T20:08:14.360Z,59.83
2022-11-07T20:10:46.186Z,59.30
2022-11-07T20:13:12.801Z,59.06
2022-11-07T20:15:39.881Z,59.44
2022-11-07T20:18:06.680Z,59.33
2022-11-07T20:20:33.342Z,59.76
2022-11-07T20:23:00.353Z,59.86
2022-11-07T20:25:26.947Z,59.65
2022-11-07T20:27:53.872Z,59.54
2022-11-07T20:30:20.489Z,59.42
2022-11-07T20:32:47.105Z,59.46
2022-11-07T20:35:13.686Z,59.43
2022-11-07T20:37:40.292Z,59.26
2022-11-07T20:40:08.041Z,59.56
2022-11-07T20:42:34.705Z,59.44
2022-11-07T20:45:01.287Z,59.64
2022-11-07T20:47:27.877Z,60.60
2022-11-07T20:49:54.441Z,59.76
2022-11-07T20:52:21.100Z,59.38
2022-11-07T20:54:47.689Z,59.45
2022-11-07T20:57:14.302Z,59.61
2022-11-07T20:59:42.157Z,59.88
2022-11-07T21:02:13.059Z,59.72
2022-11-07T21:04:56.153Z,59.81
2022-11-07T21:07:26.357Z,60.80
2022-11-07T21:09:52.952Z,60.38
2022-11-07T21:12:19.602Z,60.51
2022-11-07T21:14:46.197Z,59.81
2022-11-07T21:17:12.882Z,60.91
2022-11-07T21:19:39.494Z,60.19
2022-11-07T21:22:06.354Z,59.59
2022-11-07T21:24:32.938Z,59.59
2022-11-07T21:26:59.762Z,59.57
2022-11-07T21:29:29.466Z,59.72
2022-11-07T21:31:56.749Z,59.55
2022-11-07T21:34:23.608Z,59.74
2022-11-07T21:36:50.299Z,59.75
2022-11-07T21:39:17.452Z,59.57
2022-11-07T21:41:44.093Z,59.72
2022-11-07T21:44:12.284Z,60.12
2022-11-07T21:46:39.032Z,59.78
2022-11-07T21:49:06.189Z,59.60
2022-11-07T21:51:34.921Z,60.56
2022-11-07T21:54:03.653Z,59.42
2022-11-07T21:56:33.620Z,60.64
2022-11-07T21:59:11.545Z,59.21
2022-11-07T22:01:39.736Z,59.81
2022-11-07T22:04:11.162Z,60.63
2022-11-07T22:06:42.233Z,60.62
2022-11-07T22:09:10.865Z,60.16
2022-11-07T22:11:37.479Z,60.32
2022-11-07T22:14:04.178Z,59.81
2022-11-07T22:16:31.534Z,60.06
2022-11-07T22:18:59.679Z,60.30
2022-11-07T22:21:26.443Z,60.57
2022-11-07T22:23:53.026Z,60.29
2022-11-07T22:26:24.419Z,60.11
2022-11-07T22:28:51.839Z,59.73
2022-11-07T22:31:22.371Z,60.21
2022-11-07T22:33:49.850Z,60.64
2022-11-07T22:36:16.914Z,59.92
2022-11-07T22:38:43.652Z,60.35
2022-11-07T22:41:14.562Z,59.92
2022-11-07T22:43:41.479Z,60.10
2022-11-07T22:46:13.461Z,59.51
2022-11-07T22:48:41.269Z,59.21
2022-11-07T22:51:10.483Z,59.55
2022-11-07T22:53:38.616Z,59.07
2022-11-07T22:56:14.095Z,59.74
2022-11-07T22:58:41.699Z,60.27
2022-11-07T23:01:16.242Z,60.01
2022-11-07T23:03:42.877Z,59.88
2022-11-07T23:06:09.523Z,59.66
2022-11-07T23:08:37.230Z,59.78
2022-11-07T23:14:02.003Z,59.84
2022-11-07T23:16:33.104Z,60.94
2022-11-07T23:19:02.879Z,60.54
2022-11-07T23:21:29.721Z,60.76
2022-11-07T23:23:58.605Z,60.27
2022-11-07T23:26:26.880Z,60.58
2022-11-07T23:28:53.461Z,60.75
2022-11-07T23:31:20.153Z,60.59
2022-11-07T23:33:46.849Z,60.39
2022-11-07T23:36:15.899Z,60.66
2022-11-07T23:38:43.652Z,60.17
2022-11-07T23:41:13.890Z,59.78
2022-11-07T23:43:41.013Z,60.65
2022-11-07T23:46:26.810Z,60.09
2022-11-07T23:49:14.532Z,61.00
2022-11-07T23:51:42.100Z,60.07
2022-11-07T23:54:27.226Z,60.05
2022-11-07T23:56:54.211Z,60.45
2022-11-07T23:59:39.280Z,60.42
